Time;durP1;ratioP1;P1;durP2;ratioP2;P2;SDS_P1;SDS_P2;PMS_P1;PMS_P2;Temp;Humidity;BMP_temperature;BMP_pressure;BME280_temperature;BME280_humidity;BME280_pressure;Samples;Min_cycle;Max_cycle;Signal;HPM_P1;HPM_P2
2022/10/14 00:01:22;;;;;;;4.12;3.40;;;;;;;10.27;84.34;99651.31;4501151;31;34583;-74
2022/10/14 00:03:51;;;;;;;1.87;1.45;;;;;;;10.74;81.02;99646.75;4501029;31;35236;-74
2022/10/14 00:06:22;;;;;;;1.02;0.82;;;;;;;10.49;82.36;99644.28;4502125;31;33653;-74
2022/10/14 00:08:51;;;;;;;4.75;3.03;;;;;;;10.80;81.61;99636.31;4501967;31;34009;-74
2022/10/14 00:11:25;;;;;;;1.33;1.23;;;;;;;10.69;82.03;99644.16;4502078;31;34964;-74
2022/10/14 00:13:55;;;;;;;1.62;1.52;;;;;;;10.75;82.74;99638.06;4501929;31;34446;-74
2022/10/14 00:16:26;;;;;;;2.20;2.10;;;;;;;10.73;82.38;99640.69;4500950;31;35170;-74
2022/10/14 00:18:55;;;;;;;2.67;1.75;;;;;;;10.57;83.80;99644.22;4502128;31;33951;-74
2022/10/14 00:21:25;;;;;;;2.85;2.28;;;;;;;10.43;84.18;99642.59;4501171;31;35262;-74
2022/10/14 00:23:53;;;;;;;2.90;2.22;;;;;;;10.67;83.15;99635.50;4500803;31;34393;-74
2022/10/14 00:26:31;;;;;;;0.75;0.75;;;;;;;10.59;83.21;99637.31;4501848;31;34271;-74
2022/10/14 00:29:00;;;;;;;3.33;3.00;;;;;;;10.18;84.27;99639.22;4501940;31;33801;-74
2022/10/14 00:31:31;;;;;;;2.37;1.87;;;;;;;10.54;83.81;99639.94;4501874;31;34963;-74
2022/10/14 00:33:59;;;;;;;1.58;1.35;;;;;;;10.86;81.53;99625.81;4501910;31;34401;-74
2022/10/14 00:36:27;;;;;;;2.15;1.67;;;;;;;10.92;80.28;99630.13;4501786;31;33508;-74
2022/10/14 00:38:55;;;;;;;1.85;1.75;;;;;;;10.81;81.33;99632.81;4501794;31;34069;-74
2022/10/14 00:41:31;;;;;;;2.12;1.85;;;;;;;10.75;81.44;99627.66;4501840;31;35286;-74
2022/10/14 00:44:06;;;;;;;1.77;1.67;;;;;;;10.76;81.48;99630.22;4500728;31;34546;-74
2022/10/14 00:46:38;;;;;;;2.60;1.25;;;;;;;10.62;82.24;99626.84;4501894;31;33312;-74
2022/10/14 00:49:11;;;;;;;2.50;1.77;;;;;;;10.30;82.75;99624.41;4501790;31;33845;-74
2022/10/14 00:51:40;;;;;;;1.55;1.42;;;;;;;10.29;83.42;99626.16;4501747;31;35893;-74
2022/10/14 00:54:10;;;;;;;2.28;2.12;;;;;;;10.37;82.80;99621.78;4500584;31;34510;-74
2022/10/14 00:56:39;;;;;;;1.05;0.98;;;;;;;10.62;82.98;99632.94;4487627;31;32102;-74
2022/10/14 00:59:09;;;;;;;5.03;2.08;;;;;;;10.81;81.69;99622.38;4500669;31;33886;-74
2022/10/14 01:01:38;;;;;;;1.77;1.67;;;;;;;10.75;81.72;99625.03;4500724;31;35885;-74
2022/10/14 01:04:05;;;;;;;3.83;1.40;;;;;;;10.63;82.33;99619.03;4501702;31;35185;-74
2022/10/14 01:06:40;;;;;;;6.95;2.65;;;;;;;10.65;80.61;99625.97;4501744;31;33600;-73
2022/10/14 01:09:25;;;;;;;2.45;2.25;;;;;;;10.51;82.37;99624.31;4501656;31;34067;-74
2022/10/14 01:12:41;;;;;;;1.25;1.15;;;;;;;10.96;80.18;99617.06;4500457;31;34693;-74
2022/10/14 01:15:18;;;;;;;1.60;1.55;;;;;;;10.88;79.33;99618.00;4488371;31;35281;-74
2022/10/14 01:17:56;;;;;;;1.02;1.02;;;;;;;10.98;79.25;99614.44;4501559;31;33548;-74
2022/10/14 01:20:46;;;;;;;1.12;1.12;;;;;;;10.31;83.23;99616.62;4501556;31;34734;-74
2022/10/14 01:23:32;;;;;;;1.42;1.33;;;;;;;10.53;83.34;99621.69;4501690;31;35491;-74
2022/10/14 01:26:22;;;;;;;2.10;1.95;;;;;;;10.63;83.78;99615.56;4501299;31;34894;-74
2022/10/14 01:29:25;;;;;;;0.73;0.73;;;;;;;11.02;81.45;99616.16;4500329;31;34329;-74
2022/10/14 01:32:00;;;;;;;1.02;0.98;;;;;;;10.67;82.00;99604.25;4468054;31;34660;-73
2022/10/14 01:34:38;;;;;;;2.10;1.60;;;;;;;10.71;81.41;99597.28;4500276;31;35137;-74
2022/10/14 01:37:16;;;;;;;1.12;1.05;;;;;;;10.48;81.17;99600.88;4500129;31;34443;-73
2022/10/14 01:39:50;;;;;;;1.67;1.58;;;;;;;10.56;82.98;99606.94;4500328;31;33513;-74
2022/10/14 01:42:30;;;;;;;1.98;1.85;;;;;;;10.67;82.61;99598.19;4500083;31;33902;-73
2022/10/14 01:45:21;;;;;;;2.22;2.03;;;;;;;10.54;82.16;99600.88;4501527;31;35152;-74
2022/10/14 01:47:50;;;;;;;5.07;2.30;;;;;;;10.73;81.96;99601.62;4500469;31;34446;-74
2022/10/14 01:50:20;;;;;;;0.82;0.82;;;;;;;10.71;83.32;99594.66;4499941;31;33547;-73
2022/10/14 01:53:00;;;;;;;2.95;2.75;;;;;;;10.73;83.47;99598.13;4501340;31;33723;-74
2022/10/14 01:55:34;;;;;;;0.95;0.95;;;;;;;10.75;81.78;99593.78;4500156;31;34922;-74
2022/10/14 01:58:03;;;;;;;3.25;2.62;;;;;;;10.80;81.42;99595.47;4501153;31;35290;-74
2022/10/14 02:00:31;;;;;;;1.40;1.33;;;;;;;10.42;82.68;99596.59;4500082;31;33628;-73
2022/10/14 02:03:01;;;;;;;1.95;1.67;;;;;;;10.61;82.53;99599.09;4501021;31;33923;-74
2022/10/14 02:05:47;;;;;;;1.33;0.88;;;;;;;10.60;82.19;99595.59;4500866;31;35067;-74
2022/10/14 02:08:24;;;;;;;1.40;1.30;;;;;;;10.18;83.52;99600.19;4500977;31;34483;-74
2022/10/14 02:10:58;;;;;;;3.00;1.85;;;;;;;10.73;81.60;99598.13;4501061;31;34335;-73
2022/10/14 02:13:29;;;;;;;1.80;1.70;;;;;;;10.76;80.65;99593.75;4500936;31;33929;-74
2022/10/14 02:16:01;;;;;;;1.05;1.05;;;;;;;10.77;80.15;99595.50;4500693;31;34981;-74
2022/10/14 02:18:54;;;;;;;1.25;1.15;;;;;;;10.84;80.08;99595.47;4499888;31;34354;-74
2022/10/14 02:21:31;;;;;;;0.90;0.90;;;;;;;10.84;79.66;99596.31;4501045;31;33334;-74
2022/10/14 02:24:27;;;;;;;5.20;1.67;;;;;;;10.80;79.41;99585.06;4500967;31;33877;-74
2022/10/14 02:26:57;;;;;;;1.95;1.85;;;;;;;10.61;80.24;99583.47;4500343;31;35035;-73
2022/10/14 02:29:26;;;;;;;1.45;1.37;;;;;;;10.56;80.86;99586.09;4499472;31;34381;-74
2022/10/14 02:31:56;;;;;;;1.62;1.52;;;;;;;9.91;84.63;99593.34;4499317;31;34291;-74
2022/10/14 02:34:25;;;;;;;3.67;1.33;;;;;;;10.50;81.75;99585.25;4499406;31;33501;-74
2022/10/14 02:36:54;;;;;;;2.47;2.28;;;;;;;10.41;82.63;99586.19;4499280;31;35753;-74
2022/10/14 02:39:29;;;;;;;0.98;0.98;;;;;;;9.87;84.22;99591.66;4499355;31;35308;-74
2022/10/14 02:41:57;;;;;;;2.92;2.15;;;;;;;10.56;81.61;99590.44;4500432;31;33550;-74
2022/10/14 02:44:25;;;;;;;2.83;1.85;;;;;;;10.69;80.29;99589.47;4500610;31;34012;-74
2022/10/14 02:46:56;;;;;;;0.57;0.57;;;;;;;10.79;79.58;99588.53;4500429;31;35028;-74
2022/10/14 02:49:27;;;;;;;2.62;2.42;;;;;;;10.67;79.97;99586.00;4500514;31;35333;-74
2022/10/14 02:51:56;;;;;;;2.05;1.95;;;;;;;10.43;79.93;99584.47;4500478;31;33781;-73
2022/10/14 02:54:24;;;;;;;3.00;2.78;;;;;;;10.26;81.85;99581.91;4500118;31;33919;-73
2022/10/14 02:56:52;;;;;;;2.10;1.90;;;;;;;10.43;81.44;99580.13;4500206;31;35054;-74
2022/10/14 02:59:20;;;;;;;0.90;0.90;;;;;;;10.42;80.93;99578.38;4500393;31;34428;-74
2022/10/14 03:01:48;;;;;;;0.88;0.88;;;;;;;10.44;81.74;99576.63;4502471;31;33198;-74
2022/10/14 03:04:17;;;;;;;1.95;1.85;;;;;;;10.17;81.87;99584.56;4502571;31;33958;-73
2022/10/14 03:06:44;;;;;;;1.52;1.48;;;;;;;10.33;81.56;99582.78;4502775;31;35141;-74
2022/10/14 03:09:13;;;;;;;1.42;1.20;;;;;;;10.17;82.58;99581.97;4502550;31;35111;-74
2022/10/14 03:11:41;;;;;;;1.48;1.37;;;;;;;10.41;81.56;99583.56;4502598;31;34306;-73
2022/10/14 03:14:09;;;;;;;0.95;0.95;;;;;;;10.38;80.94;99587.09;4502740;31;34060;-74
2022/10/14 03:16:37;;;;;;;1.10;1.10;;;;;;;10.03;82.46;99584.63;4502586;31;35261;-74
2022/10/14 03:19:06;;;;;;;1.42;1.33;;;;;;;9.96;83.86;99581.19;4502432;31;34386;-74
2022/10/14 03:21:35;;;;;;;2.33;2.17;;;;;;;10.49;81.69;99584.41;4502693;31;33475;-74
2022/10/14 03:24:03;;;;;;;0.88;0.88;;;;;;;10.15;84.22;99579.38;4502382;31;34844;-74
2022/10/14 03:26:31;;;;;;;1.55;1.45;;;;;;;10.73;80.93;99582.50;4502244;31;35956;-74
2022/10/14 03:28:59;;;;;;;2.15;1.40;;;;;;;10.62;81.10;99569.56;4502403;31;35117;-74
2022/10/14 03:31:28;;;;;;;2.85;1.25;;;;;;;10.54;81.94;99576.59;4502351;31;34345;-74
2022/10/14 03:33:57;;;;;;;2.12;2.03;;;;;;;10.49;82.99;99574.00;4502291;31;33919;-74
2022/10/14 03:36:27;;;;;;;0.95;0.88;;;;;;;10.58;83.48;99570.47;4502498;31;35132;-74
2022/10/14 03:38:55;;;;;;;1.42;1.25;;;;;;;10.58;83.71;99573.94;4502474;31;34122;-74
2022/10/14 03:41:25;;;;;;;0.65;0.65;;;;;;;10.66;84.99;99576.50;4502322;31;33647;-74
2022/10/14 03:43:53;;;;;;;1.77;1.67;;;;;;;11.06;83.55;99570.94;4502572;31;33920;-74
2022/10/14 03:46:20;;;;;;;1.08;1.08;;;;;;;11.33;83.03;99571.53;4502438;31;34955;-74
2022/10/14 03:48:49;;;;;;;1.58;1.48;;;;;;;11.30;83.22;99569.84;4502486;31;34494;-75
2022/10/14 03:51:17;;;;;;;0.77;0.77;;;;;;;10.97;85.32;99574.47;4502294;31;33344;-74
2022/10/14 03:53:46;;;;;;;2.40;1.55;;;;;;;11.00;86.01;99571.00;4502458;31;34789;-74
2022/10/14 03:56:17;;;;;;;1.55;1.45;;;;;;;11.44;85.07;99569.72;4502399;31;35023;-74
2022/10/14 03:58:45;;;;;;;2.60;2.40;;;;;;;11.11;86.12;99563.94;4501283;31;34465;-74
2022/10/14 04:01:13;;;;;;;1.48;1.37;;;;;;;11.62;84.42;99558.19;4502447;31;33378;-74
2022/10/14 04:03:47;;;;;;;1.12;1.10;;;;;;;11.37;85.10;99557.63;4502391;31;34067;-74
2022/10/14 04:06:15;;;;;;;0.98;0.98;;;;;;;11.10;86.60;99562.22;4502354;31;35001;-73
2022/10/14 04:08:43;;;;;;;0.98;0.85;;;;;;;11.00;86.42;99556.22;4501930;31;35168;-74
2022/10/14 04:11:12;;;;;;;1.05;1.02;;;;;;;11.07;85.78;99562.25;4501907;31;33415;-74
2022/10/14 04:13:40;;;;;;;2.47;2.28;;;;;;;11.29;84.06;99554.22;4502325;31;33982;-74
2022/10/14 04:16:09;;;;;;;2.17;2.03;;;;;;;11.10;84.86;99558.75;4501919;31;35120;-74
2022/10/14 04:18:38;;;;;;;1.65;1.55;;;;;;;11.14;83.62;99556.09;4501086;31;34455;-74
2022/10/14 04:21:10;;;;;;;1.83;1.70;;;;;;;11.50;81.98;99548.75;4494323;31;33557;-72
2022/10/14 04:23:39;;;;;;;5.43;2.97;;;;;;;11.66;80.06;99556.41;4488764;31;33642;-72
2022/10/14 04:26:08;;;;;;;1.48;1.37;;;;;;;11.62;79.48;99553.00;4498684;31;34967;-72
2022/10/14 04:28:36;;;;;;;1.17;1.15;;;;;;;11.72;77.93;99548.53;4489415;31;34421;-72
2022/10/14 04:31:05;;;;;;;2.40;1.95;;;;;;;11.35;79.69;99543.75;4493684;31;33564;-72
2022/10/14 04:33:33;;;;;;;1.42;1.33;;;;;;;11.31;79.02;99547.25;4496892;31;33740;-72
2022/10/14 04:36:05;;;;;;;2.40;1.90;;;;;;;11.14;80.24;99548.28;4488109;31;35909;-72
2022/10/14 04:38:34;;;;;;;1.00;0.98;;;;;;;10.88;80.91;99550.25;4497176;31;34429;-72
2022/10/14 04:41:02;;;;;;;1.02;1.02;;;;;;;10.79;80.99;99556.41;4493147;31;33545;-72
2022/10/14 04:43:30;;;;;;;5.05;2.50;;;;;;;10.85;80.81;99552.88;4491009;31;34009;-72
2022/10/14 04:46:03;;;;;;;1.02;1.02;;;;;;;11.42;76.57;99548.00;4498703;31;35907;-73
2022/10/14 04:48:32;;;;;;;0.90;0.88;;;;;;;11.29;76.63;99554.22;4489906;31;34578;-71
2022/10/14 04:51:01;;;;;;;3.12;1.02;;;;;;;11.12;76.87;99550.03;4493044;31;33488;-71
2022/10/14 04:53:30;;;;;;;2.40;2.15;;;;;;;10.70;78.60;99559.97;4497249;31;33937;-71
2022/10/14 04:55:59;;;;;;;3.35;2.20;;;;;;;10.57;80.18;99555.69;4488138;31;35899;-72
2022/10/14 04:58:27;;;;;;;1.52;1.40;;;;;;;10.70;78.53;99554.75;4496857;31;34200;-72
2022/10/14 05:00:56;;;;;;;1.90;1.67;;;;;;;10.88;76.79;99560.69;4493531;31;34284;-71
2022/10/14 05:03:24;;;;;;;2.50;1.10;;;;;;;10.97;77.03;99561.47;4490482;31;34812;-71
2022/10/14 05:05:52;;;;;;;0.93;0.90;;;;;;;10.89;76.84;99557.19;4498437;31;34982;-71
2022/10/14 05:08:20;;;;;;;1.05;1.05;;;;;;;10.88;76.22;99555.47;4489640;31;34407;-71
2022/10/14 05:10:49;;;;;;;1.12;1.08;;;;;;;10.42;77.52;99552.34;4494405;31;33500;-71
2022/10/14 05:13:18;;;;;;;2.58;1.70;;;;;;;9.75;82.06;99557.88;4494702;31;33642;-71
2022/10/14 05:15:47;;;;;;;1.62;1.52;;;;;;;10.35;79.56;99550.66;4488139;31;35037;-71
2022/10/14 05:18:15;;;;;;;3.87;1.98;;;;;;;10.15;80.90;99552.50;4497677;31;35139;-71
2022/10/14 05:20:44;;;;;;;1.35;1.25;;;;;;;9.96;82.17;99547.38;4485872;32;33928;-74
2022/10/14 05:23:12;;;;;;;2.37;1.20;;;;;;;10.14;82.16;99553.34;4484946;32;34112;-74
2022/10/14 05:25:41;;;;;;;1.35;1.15;;;;;;;9.90;83.08;99556.94;4485715;32;35375;-73
2022/10/14 05:28:09;;;;;;;4.68;2.58;;;;;;;10.53;80.19;99556.63;4484658;32;34544;-74
2022/10/14 05:30:37;;;;;;;1.85;1.75;;;;;;;9.89;83.04;99563.03;4484570;32;34286;-74
2022/10/14 05:33:06;;;;;;;1.40;1.30;;;;;;;10.14;82.72;99566.37;4485824;32;33931;-74
2022/10/14 05:35:37;;;;;;;2.42;2.08;;;;;;;9.97;83.54;99569.94;4485927;32;35029;-73
2022/10/14 05:38:25;;;;;;;2.55;2.35;;;;;;;9.99;83.98;99564.72;4485560;32;34481;-73
2022/10/14 05:40:54;;;;;;;4.03;3.70;;;;;;;10.51;81.10;99566.19;4485857;32;34487;-73
2022/10/14 05:43:23;;;;;;;1.62;1.52;;;;;;;10.38;82.66;99568.84;4485504;32;34844;-74
2022/10/14 05:45:59;;;;;;;1.37;1.17;;;;;;;10.43;83.27;99564.50;4485823;32;35869;-73
2022/10/14 05:48:27;;;;;;;1.00;1.00;;;;;;;11.06;82.07;99570.94;4485673;32;35161;-73
2022/10/14 05:51:00;;;;;;;1.15;1.12;;;;;;;10.96;82.25;99571.91;4485674;32;33438;-73
2022/10/14 05:53:29;;;;;;;1.65;1.55;;;;;;;10.97;83.80;99571.03;4485184;32;33953;-74
2022/10/14 05:56:06;;;;;;;1.90;1.80;;;;;;;11.05;85.23;99574.44;4485547;32;35748;-74
2022/10/14 05:58:36;;;;;;;1.58;1.48;;;;;;;11.29;85.84;99582.91;4484416;32;34566;-73
2022/10/14 06:01:07;;;;;;;1.10;1.10;;;;;;;12.21;85.11;99581.87;4485585;32;33477;-73
2022/10/14 06:03:37;;;;;;;1.00;1.00;;;;;;;12.63;83.05;99581.25;4485611;32;33832;-73
2022/10/14 06:06:07;;;;;;;4.75;3.62;;;;;;;13.12;79.66;99587.47;4485538;32;34977;-73
2022/10/14 06:08:35;;;;;;;1.77;1.65;;;;;;;13.25;78.92;99583.72;4484995;32;34593;-73
2022/10/14 06:11:03;;;;;;;1.42;1.33;;;;;;;13.27;78.52;99589.78;4485225;32;34463;-73
2022/10/14 06:13:32;;;;;;;2.90;2.70;;;;;;;13.44;77.10;99598.22;4484928;32;34659;-73
2022/10/14 06:16:04;;;;;;;1.33;1.25;;;;;;;13.57;76.16;99603.22;4485293;32;36075;-73
2022/10/14 06:18:34;;;;;;;1.15;1.12;;;;;;;13.52;77.09;99599.84;4485002;32;34561;-74
2022/10/14 06:21:03;;;;;;;3.45;3.15;;;;;;;13.61;76.55;99599.69;4485191;32;34268;-73
2022/10/14 06:23:31;;;;;;;1.70;1.58;;;;;;;13.45;77.43;99597.34;4484932;32;33913;-73
2022/10/14 06:26:03;;;;;;;1.23;1.12;;;;;;;13.46;77.42;99606.94;4484656;32;34779;-73
2022/10/14 06:28:31;;;;;;;10.63;4.57;;;;;;;13.71;76.84;99608.19;4485337;32;34526;-73
2022/10/14 06:31:00;;;;;;;2.40;2.22;;;;;;;13.60;77.36;99605.78;4483599;32;34308;-74
2022/10/14 06:33:28;;;;;;;2.62;2.42;;;;;;;13.76;75.76;99601.97;4492330;31;33947;-72
2022/10/14 06:35:57;;;;;;;3.85;2.10;;;;;;;13.75;76.09;99605.50;4489611;31;35196;-72
2022/10/14 06:38:26;;;;;;;1.50;1.40;;;;;;;14.03;75.63;99602.34;4498278;31;34425;-72
2022/10/14 06:40:54;;;;;;;1.83;1.73;;;;;;;14.46;74.07;99609.28;4492257;31;33459;-72
2022/10/14 06:43:22;;;;;;;2.58;2.37;;;;;;;14.59;73.85;99608.12;4493171;31;34757;-73
2022/10/14 06:45:51;;;;;;;2.80;2.55;;;;;;;14.49;73.09;99603.97;4498287;31;35664;-72
2022/10/14 06:48:19;;;;;;;1.60;1.50;;;;;;;14.65;72.80;99608.88;4488949;31;35130;-72
2022/10/14 06:50:47;;;;;;;1.02;1.00;;;;;;;14.89;71.38;99610.91;4497038;31;34256;-72
2022/10/14 06:53:15;;;;;;;3.30;2.83;;;;;;;14.76;70.94;99618.22;4494181;31;34015;-73
2022/10/14 06:55:44;;;;;;;2.33;2.12;;;;;;;15.00;70.90;99615.03;4490933;31;35034;-71
2022/10/14 06:58:12;;;;;;;3.17;2.08;;;;;;;15.04;69.72;99611.47;4500420;31;34439;-75
2022/10/14 07:00:40;;;;;;;2.92;2.00;;;;;;;15.14;70.55;99613.81;4502426;31;33655;-73
2022/10/14 07:03:14;;;;;;;3.12;2.83;;;;;;;15.25;69.96;99610.91;4502357;31;33983;-75
2022/10/14 07:05:42;;;;;;;2.30;2.12;;;;;;;15.29;68.46;99609.94;4502167;31;35228;-75
2022/10/14 07:08:10;;;;;;;2.10;1.90;;;;;;;15.39;69.62;99610.56;4501650;31;35302;-72
2022/10/14 07:10:42;;;;;;;2.12;1.95;;;;;;;15.86;66.80;99608.44;4501878;31;33274;-73
2022/10/14 07:13:10;;;;;;;3.62;3.33;;;;;;;15.99;67.35;99608.06;4502279;31;34703;-73
2022/10/14 07:15:38;;;;;;;2.35;2.00;;;;;;;16.30;67.33;99610.69;4502451;31;35962;-73
2022/10/14 07:18:07;;;;;;;2.37;2.25;;;;;;;16.41;68.48;99611.22;4502456;31;34595;-73
2022/10/14 07:20:35;;;;;;;3.08;2.67;;;;;;;16.45;67.27;99612.84;4502265;31;33349;-73
2022/10/14 07:23:03;;;;;;;2.55;2.33;;;;;;;16.52;67.20;99612.66;4502218;31;33913;-73
2022/10/14 07:25:31;;;;;;;2.42;2.15;;;;;;;16.55;63.12;99615.19;4502103;31;36053;-73
2022/10/14 07:28:00;;;;;;;2.08;1.87;;;;;;;16.77;66.28;99618.88;4502387;31;34382;-74
2022/10/14 07:30:28;;;;;;;1.08;1.00;;;;;;;17.33;61.48;99614.44;4502066;31;34202;-73
2022/10/14 07:32:58;;;;;;;3.12;2.72;;;;;;;17.33;59.76;99617.97;4501896;31;33917;-74
2022/10/14 07:35:26;;;;;;;2.58;2.37;;;;;;;17.17;60.83;99608.84;4500579;31;34924;-74
2022/10/14 07:37:54;;;;;;;2.65;1.77;;;;;;;17.40;59.66;99608.06;4499320;31;35193;-74
2022/10/14 07:40:24;;;;;;;1.40;1.30;;;;;;;17.84;56.85;99608.25;4502192;31;33528;-74
2022/10/14 07:42:51;;;;;;;2.40;2.20;;;;;;;17.54;58.87;99605.84;4502296;31;34713;-74
2022/10/14 07:45:22;;;;;;;1.83;1.67;;;;;;;18.16;57.67;99607.13;4494377;31;35260;-73
2022/10/14 07:47:51;;;;;;;3.53;2.78;;;;;;;18.30;56.84;99611.87;4502165;31;34543;-74
2022/10/14 07:50:20;;;;;;;2.10;1.98;;;;;;;18.74;55.43;99616.31;4502144;31;34466;-75
2022/10/14 07:52:48;;;;;;;2.90;2.65;;;;;;;18.75;55.48;99603.06;4502037;31;33857;-74
2022/10/14 07:55:16;;;;;;;17.62;3.17;;;;;;;18.99;55.01;99604.78;4502017;31;35045;-75
2022/10/14 07:57:44;;;;;;;0.85;0.85;;;;;;;19.37;54.09;99605.00;4499549;31;34365;-75
2022/10/14 08:00:12;;;;;;;4.93;2.78;;;;;;;19.31;54.07;99596.41;4502214;31;33424;-74
2022/10/14 08:02:40;;;;;;;3.78;2.65;;;;;;;19.40;53.86;99600.44;4502047;31;34026;-75
2022/10/14 08:05:08;;;;;;;1.35;1.25;;;;;;;19.39;54.24;99601.34;4502042;31;35186;-75
2022/10/14 08:07:57;;;;;;;3.35;2.35;;;;;;;19.85;54.59;99594.09;4502125;31;35077;-74
2022/10/14 08:10:25;;;;;;;1.52;1.42;;;;;;;20.68;54.93;99602.59;4502021;31;33353;-73
2022/10/14 08:12:53;;;;;;;3.95;2.95;;;;;;;20.71;53.37;99604.28;4501919;31;33888;-75
2022/10/14 08:15:21;;;;;;;2.47;1.85;;;;;;;20.73;55.46;99599.75;4502020;31;35159;-73
2022/10/14 08:17:49;;;;;;;5.90;2.15;;;;;;;21.12;52.71;99596.91;4502021;31;33331;-74
2022/10/14 08:20:17;;;;;;;2.15;1.77;;;;;;;21.37;51.90;99598.31;4502034;31;33532;-74
2022/10/14 08:22:45;;;;;;;0.95;0.95;;;;;;;21.73;48.20;99592.09;4501965;31;34008;-74
2022/10/14 08:25:13;;;;;;;2.70;2.50;;;;;;;22.33;48.58;99584.44;4501793;31;35161;-74
2022/10/14 08:27:41;;;;;;;1.25;1.12;;;;;;;22.83;45.91;99577.19;4501941;31;35236;-73
2022/10/14 08:30:10;;;;;;;2.42;2.22;;;;;;;22.90;43.94;99580.38;4501878;31;33439;-74
2022/10/14 08:32:38;;;;;;;3.12;2.80;;;;;;;22.72;46.66;99582.28;4501920;31;33804;-74
2022/10/14 08:35:07;;;;;;;2.37;2.17;;;;;;;22.69;47.31;99577.97;4501828;31;35024;-74
2022/10/14 08:37:35;;;;;;;1.60;1.45;;;;;;;22.80;43.97;99576.53;4501829;31;34433;-75
2022/10/14 08:40:04;;;;;;;2.50;2.25;;;;;;;22.64;44.14;99573.87;4500612;31;33665;-75
2022/10/14 08:42:39;;;;;;;1.40;1.30;;;;;;;22.32;44.29;99572.13;4501862;31;34096;-75
2022/10/14 08:45:41;;;;;;;2.87;2.17;;;;;;;21.80;45.76;99574.09;4500580;31;35148;-77
2022/10/14 08:48:13;;;;;;;2.25;2.05;;;;;;;22.36;47.45;99574.59;4500648;31;35189;-73
2022/10/14 08:50:52;;;;;;;1.25;1.23;;;;;;;22.80;44.57;99580.06;4500782;31;33469;-74
2022/10/14 08:53:27;;;;;;;1.20;1.20;;;;;;;22.69;44.20;99582.44;4500500;31;34045;-73
2022/10/14 08:56:01;;;;;;;2.30;2.08;;;;;;;21.98;47.06;99590.78;4501890;31;35774;-73
2022/10/14 08:58:35;;;;;;;1.42;1.33;;;;;;;21.92;46.99;99586.69;4501673;31;34388;-76
2022/10/14 09:01:23;;;;;;;2.47;1.50;;;;;;;22.45;46.97;99580.25;4501816;31;33318;-74
2022/10/14 09:04:12;;;;;;;6.03;2.60;;;;;;;23.39;45.47;99587.28;4500643;31;33980;-75
2022/10/14 09:06:43;;;;;;;4.87;2.37;;;;;;;24.12;42.77;99581.91;4501608;31;35145;-74
2022/10/14 09:09:44;;;;;;;2.37;2.17;;;;;;;24.65;40.39;99584.78;4501657;31;34464;-73
2022/10/14 09:12:16;;;;;;;1.83;1.70;;;;;;;24.16;41.58;99582.56;4496335;31;33477;-73
2022/10/14 09:14:47;;;;;;;2.47;2.12;;;;;;;24.91;39.62;99579.56;4500380;31;33968;-74
2022/10/14 09:17:23;;;;;;;4.07;3.22;;;;;;;24.91;40.06;99584.88;4487833;31;34666;-74
2022/10/14 09:20:07;;;;;;;7.25;4.20;;;;;;;25.23;39.46;99590.72;4501588;31;34256;-74
2022/10/14 09:22:36;;;;;;;2.75;2.53;;;;;;;25.39;38.76;99590.56;4496401;31;162690;-76
2022/10/14 09:25:12;;;;;;;2.55;1.95;;;;;;;25.85;37.50;99590.03;4501218;31;34730;-73
2022/10/14 09:27:41;;;;;;;2.58;2.20;;;;;;;25.70;37.71;99593.78;4500572;31;36003;-74
2022/10/14 09:30:16;;;;;;;1.77;1.67;;;;;;;25.92;38.24;99590.47;4501387;31;35376;-74
2022/10/14 09:32:50;;;;;;;3.12;1.73;;;;;;;25.23;38.92;99587.22;4501499;31;33756;-74
2022/10/14 09:35:24;;;;;;;2.78;2.55;;;;;;;25.66;38.91;99586.94;4501445;31;34026;-74
2022/10/14 09:37:52;;;;;;;5.25;2.33;;;;;;;26.41;38.36;99583.47;4501343;31;35924;-74
2022/10/14 09:40:32;;;;;;;1.80;1.65;;;;;;;26.74;36.66;99574.81;4501130;31;35129;-73
2022/10/14 09:43:03;;;;;;;2.35;1.77;;;;;;;27.13;35.65;99580.81;4501372;31;33460;-74
2022/10/14 09:45:46;;;;;;;3.60;3.05;;;;;;;26.89;36.27;99577.31;4501251;31;33996;-76
2022/10/14 09:48:36;;;;;;;1.90;1.73;;;;;;;26.39;37.55;99574.72;4501025;31;35924;-75
2022/10/14 09:51:07;;;;;;;5.65;3.05;;;;;;;27.11;35.59;99579.19;4488093;31;34518;-75
2022/10/14 09:53:49;;;;;;;4.60;2.95;;;;;;;27.24;36.40;99578.16;4501098;31;34271;-76
2022/10/14 09:56:26;;;;;;;3.67;2.60;;;;;;;27.17;37.68;99579.59;4501097;31;33926;-73
2022/10/14 09:58:56;;;;;;;3.97;3.03;;;;;;;27.23;36.61;99583.63;4501216;31;35034;-77
2022/10/14 10:01:26;;;;;;;3.70;2.45;;;;;;;27.02;36.73;99580.78;4501039;31;35235;-76
2022/10/14 10:03:55;;;;;;;2.40;2.20;;;;;;;26.11;38.70;99574.87;4499992;31;32699;-78
2022/10/14 10:06:25;;;;;;;4.75;3.05;;;;;;;27.12;36.50;99572.91;4500787;31;34141;-75
2022/10/14 10:08:56;;;;;;;4.12;2.45;;;;;;;27.18;35.72;99578.62;4501350;31;35832;-75
2022/10/14 10:11:36;;;;;;;7.43;2.42;;;;;;;27.29;34.54;99571.66;4502989;31;35099;-75
2022/10/14 10:14:17;;;;;;;3.30;2.15;;;;;;;26.54;37.23;99573.56;4501847;31;34479;-76
2022/10/14 10:16:47;;;;;;;4.57;3.08;;;;;;;26.05;37.61;99577.16;4502869;31;34656;-75
2022/10/14 10:19:31;;;;;;;1.95;1.77;;;;;;;26.33;37.65;99576.03;4501706;31;35187;-77
2022/10/14 10:22:18;;;;;;;5.78;3.08;;;;;;;25.88;40.20;99565.81;4502854;31;34632;-78
2022/10/14 10:25:00;;;;;;;4.57;2.72;;;;;;;26.52;36.94;99566.66;4502881;31;34439;-75
2022/10/14 10:27:38;;;;;;;2.85;2.53;;;;;;;26.42;36.79;99579.81;4502932;31;34628;-76
2022/10/14 10:30:26;;;;;;;3.33;3.03;;;;;;;26.64;36.85;99568.44;4502745;31;36002;-75
2022/10/14 10:33:41;;;;;;;2.53;2.33;;;;;;;26.37;38.70;99571.31;4502872;31;34431;-74
2022/10/14 10:36:20;;;;;;;3.30;2.60;;;;;;;26.97;35.04;99565.09;4437893;32;33328;-75
2022/10/14 10:39:27;;;;;;;6.32;2.08;;;;;;;26.63;37.28;99556.03;4492973;31;34676;-77
2022/10/14 10:42:16;;;;;;;1.15;1.05;;;;;;;26.43;36.04;99549.50;4501505;31;35901;-76
2022/10/14 10:45:03;;;;;;;2.87;2.62;;;;;;;26.80;37.12;99552.13;4502757;31;35231;-76
2022/10/14 10:47:32;;;;;;;3.83;3.42;;;;;;;26.81;37.64;99543.16;4492209;31;33522;-77
2022/10/14 10:50:21;;;;;;;2.53;2.17;;;;;;;26.54;37.32;99544.19;4486804;32;33831;-78
2022/10/14 10:53:21;;;;;;;3.08;2.45;;;;;;;27.35;35.17;99547.09;4486909;32;35763;-79
2022/10/14 10:55:58;;;;;;;6.18;3.12;;;;;;;27.54;34.81;99542.03;4485779;32;34321;-76
2022/10/14 10:58:40;;;;;;;3.05;2.05;;;;;;;26.88;36.84;99536.37;4485856;32;33537;-76
2022/10/14 11:01:24;;;;;;;6.00;4.05;;;;;;;26.16;37.08;99544.34;4486977;32;33880;-76
2022/10/14 11:04:05;;;;;;;2.55;2.28;;;;;;;26.00;37.77;99539.28;4485694;32;35916;-75
2022/10/14 11:13:27;;;;;;;3.58;2.20;;;;;;;27.64;36.15;99527.91;4486757;32;33935;-75
2022/10/14 11:16:12;;;;;;;1.17;1.08;;;;;;;27.48;34.38;99529.16;4486652;32;36010;-75
2022/10/14 11:18:47;;;;;;;2.25;1.85;;;;;;;27.86;34.42;99524.41;4486636;32;34541;-74
2022/10/14 11:21:20;;;;;;;3.42;2.08;;;;;;;27.93;34.09;99520.28;4485891;32;33620;-74
2022/10/14 11:23:58;;;;;;;2.42;1.87;;;;;;;28.04;35.39;99522.94;4485495;32;34773;-77
2022/10/14 11:26:42;;;;;;;0.68;0.68;;;;;;;28.28;33.39;99514.75;4486301;32;35052;-75
2022/10/14 11:30:02;;;;;;;2.65;2.45;;;;;;;28.37;34.79;99518.50;4486604;32;34095;-77
2022/10/14 11:32:48;;;;;;;2.17;1.75;;;;;;;28.79;32.35;99509.75;4460230;31;34142;-77
2022/10/14 11:35:28;;;;;;;4.07;2.90;;;;;;;28.78;32.70;99506.19;4486572;32;34159;-77
2022/10/14 11:38:18;;;;;;;2.10;1.98;;;;;;;28.46;33.56;99507.03;4486134;32;35086;-77
2022/10/14 11:41:05;;;;;;;2.28;1.95;;;;;;;27.46;35.08;99506.16;4486351;32;34319;-77
2022/10/14 11:44:03;;;;;;;4.40;3.33;;;;;;;27.67;34.33;99496.44;4485239;32;33431;-74
2022/10/14 11:46:35;;;;;;;1.60;1.50;;;;;;;27.24;35.05;99492.59;4486603;32;34044;-74
2022/10/14 11:49:26;;;;;;;2.70;2.28;;;;;;;26.74;35.82;99496.50;4486436;32;35002;-74
2022/10/14 11:51:58;;;;;;;16.08;4.18;;;;;;;26.69;36.56;99490.66;4486448;32;34536;-74
2022/10/14 11:54:29;;;;;;;5.57;2.72;;;;;;;26.48;36.73;99492.09;4484982;32;33440;-74
2022/10/14 11:57:03;;;;;;;2.28;2.08;;;;;;;26.35;37.46;99490.44;4486537;32;34093;-77
2022/10/14 11:59:47;;;;;;;2.87;2.67;;;;;;;25.78;38.20;99492.72;4486401;32;35762;-78
2022/10/14 12:02:38;;;;;;;4.75;2.87;;;;;;;24.72;39.80;99495.53;4486395;32;34420;-76
2022/10/14 12:05:48;;;;;;;4.75;2.65;;;;;;;23.92;42.72;99487.44;4486383;32;33558;-76
2022/10/14 12:08:24;;;;;;;4.32;3.12;;;;;;;23.94;44.13;99482.00;4463962;31;33823;-76
2022/10/14 12:11:06;;;;;;;3.67;3.05;;;;;;;24.13;43.81;99482.53;4486333;32;35093;-77